Accueil
METAR-TAF:

METAR-TAF

Aéroports :

Aéroport de Saint-Yan

Saint-Yan, France

latitude: 46-24-45N, longitude: 004-00-48E, altitude: 244 m

Observation

Le bulletin a été fait il y a 23 minutes, à 13:30 UTC
Vent 3 kt de direction variable
Température 6°C
Humidité 61%
Pression 1031 hPa
Visibilité 10 km ou plus
pas de nuages en-dessous de 1500 mètres et pas de cumulonimbus.

METAR: LFLN 221330Z AUTO VRB03KT CAVOK 06/M01 Q1031 NOSIG

Heure: 14:53 (13:53 UTC)

Prévision

Le bulletin a été fait il y a 2 heures et 53 minutes, à 11:00 UTC
Prévision valable du 22 à 12 UTC au 22 à 21 UTC
Vent 5 kt de est/nord-est
Visibilité: 8000 m

TAF: LFLN 221100Z 2212/2221 06005KT 8000 NSC

Observations et prévisions météorologiques de plus de 4000 aéroports (messages METAR et TAF).

Les stations disponibles sont représentées par des disques jaunes et rouges sur la carte.

Passer la souris dessus pour voir le nom de la station.

Cliquer dessus pour voir les observations et prévisions météorologiques.

Pour changer de carte: cliquez sur les boutons verts avec une croix noire pour zoomer, sur le bouton vert avec un tiret pour effectuer un zoom arrière, ou sur les flèches vertes pour les cartes adjacentes.


METAR-TAF: